createdAt,value
2023-02-17T00:05:42.566Z,101376.34
2023-02-17T00:15:46.351Z,101354.84
2023-02-17T00:25:50.594Z,101353.13
2023-02-17T00:35:53.661Z,101342.75
2023-02-17T00:45:58.566Z,101330.72
2023-02-17T00:56:01.998Z,101328.94
2023-02-17T01:06:09.892Z,101329.84
2023-02-17T01:16:18.868Z,101325.56
2023-02-17T01:26:25.523Z,101323.84
2023-02-17T01:36:30.380Z,101288.56
2023-02-17T01:46:36.257Z,101273.88
2023-02-17T02:08:24.382Z,101250.63
2023-02-17T02:18:45.230Z,101244.53
2023-02-17T02:29:09.085Z,101246.25
2023-02-17T02:39:17.668Z,101248.84
2023-02-17T02:49:20.942Z,101253.09
2023-02-17T02:59:35.251Z,101254.78
2023-02-17T03:09:39.186Z,101231.59
2023-02-17T03:19:45.843Z,101217.63
2023-02-17T03:29:49.206Z,101207.25
2023-02-17T03:39:56.542Z,101212.41
2023-02-17T03:49:59.803Z,101201.94
2023-02-17T04:00:05.573Z,101208.22
2023-02-17T04:10:17.391Z,101214.19
2023-02-17T04:20:22.087Z,101216.81
2023-02-17T04:30:25.335Z,101212.63
2023-02-17T04:40:29.595Z,101219.47
2023-02-17T04:50:32.896Z,101198.03
2023-02-17T05:00:37.962Z,101215.19
2023-02-17T05:11:06.448Z,101204.94
2023-02-17T05:21:10.942Z,101209.13
2023-02-17T05:31:14.737Z,101210.13
2023-02-17T05:41:20.412Z,101210.00
2023-02-17T05:51:23.442Z,101208.28
2023-02-17T06:01:28.633Z,101200.44
2023-02-17T06:11:31.900Z,101192.66
2023-02-17T06:21:36.642Z,101180.53
2023-02-17T06:31:40.215Z,101184.72
2023-02-17T06:41:44.764Z,101194.13
2023-02-17T06:51:48.180Z,101195.91
2023-02-17T07:01:54.549Z,101194.00
2023-02-17T07:11:59.002Z,101189.50
2023-02-17T07:22:03.821Z,101188.53
2023-02-17T07:32:08.088Z,101183.28
2023-02-17T07:52:43.406Z,101168.47
2023-02-17T08:02:47.068Z,101157.13
2023-02-17T08:13:05.662Z,101174.09
2023-02-17T08:23:09.551Z,101166.03
2023-02-17T08:33:18.037Z,101162.28
2023-02-17T08:43:20.962Z,101181.78
2023-02-17T08:53:25.526Z,101188.34
2023-02-17T09:03:28.660Z,101190.63
2023-02-17T09:13:33.356Z,101194.66
2023-02-17T09:23:37.538Z,101194.34
2023-02-17T09:33:42.828Z,101191.16
2023-02-17T09:43:46.769Z,101185.25
2023-02-17T09:53:58.717Z,101180.09
2023-02-17T10:04:11.617Z,101188.97
2023-02-17T10:14:20.254Z,101201.63
2023-02-17T10:24:23.316Z,101195.25
2023-02-17T10:34:37.492Z,101200.56
2023-02-17T10:44:40.677Z,101202.09
2023-02-17T10:54:51.440Z,101201.69
2023-02-17T11:04:55.561Z,101174.63
2023-02-17T11:15:04.362Z,101183.06
2023-02-17T11:25:21.969Z,101196.13
2023-02-17T11:35:46.109Z,101176.09
2023-02-17T11:46:00.687Z,101177.75
2023-02-17T11:56:15.470Z,101159.25
2023-02-17T12:06:23.873Z,101167.75
2023-02-17T12:16:41.239Z,101158.53
2023-02-17T12:26:47.255Z,101131.72
2023-02-17T12:36:53.350Z,101126.69
2023-02-17T12:46:59.879Z,101118.31
2023-02-17T12:57:14.672Z,101094.47
2023-02-17T13:07:42.033Z,101074.84
2023-02-17T13:17:56.527Z,101078.78
2023-02-17T13:28:01.288Z,101091.34
2023-02-17T13:38:06.524Z,101085.25
2023-02-17T13:48:15.160Z,101078.59
2023-02-17T13:58:25.533Z,101089.19
2023-02-17T14:08:34.830Z,101097.97
2023-02-17T14:18:42.790Z,101107.19
2023-02-17T14:28:53.714Z,101121.94
2023-02-17T14:38:59.348Z,101149.63
2023-02-17T14:49:03.493Z,101134.94
2023-02-17T14:59:07.842Z,101160.50
2023-02-17T15:09:13.582Z,101163.44
2023-02-17T15:19:18.174Z,101153.88
2023-02-17T15:29:23.026Z,101171.97
2023-02-17T15:39:27.195Z,101167.84
2023-02-17T15:49:30.138Z,101176.03
2023-02-17T15:59:38.120Z,101212.66
2023-02-17T16:09:41.169Z,101216.09
2023-02-17T16:19:45.557Z,101234.91
2023-02-17T16:29:48.560Z,101273.28
2023-02-17T16:39:52.940Z,101278.22
2023-02-17T16:49:55.898Z,101300.28
2023-02-17T17:00:00.373Z,101343.31
2023-02-17T17:10:19.200Z,101377.84
2023-02-17T17:20:28.064Z,101403.88
2023-02-17T17:30:35.755Z,101433.47
2023-02-17T17:40:49.202Z,101452.88
2023-02-17T17:50:52.176Z,101428.09
2023-02-17T18:00:56.700Z,101445.53
2023-02-17T18:11:00.202Z,101449.63
2023-02-17T18:21:04.469Z,101459.44
2023-02-17T18:31:08.347Z,101461.31
2023-02-17T18:41:20.295Z,101464.44
2023-02-17T18:51:24.345Z,101471.69
2023-02-17T19:01:32.088Z,101487.81
2023-02-17T19:11:36.015Z,101496.59
2023-02-17T19:21:40.483Z,101512.75
2023-02-17T19:31:43.636Z,101517.44
2023-02-17T19:41:48.206Z,101523.56
2023-02-17T19:51:51.574Z,101525.28
2023-02-17T20:01:55.956Z,101536.41
2023-02-17T20:11:59.343Z,101556.09
2023-02-17T20:22:04.180Z,101558.06
2023-02-17T20:32:07.323Z,101573.09
2023-02-17T20:42:11.755Z,101559.56
2023-02-17T20:52:14.840Z,101571.81
2023-02-17T21:02:19.760Z,101569.81
2023-02-17T21:12:23.223Z,101569.25
2023-02-17T21:22:27.773Z,101577.97
2023-02-17T21:32:31.388Z,101577.88
2023-02-17T21:42:52.118Z,101571.38
2023-02-17T21:52:55.260Z,101574.16
2023-02-17T22:02:59.987Z,101560.31
2023-02-17T22:13:03.480Z,101576.94
2023-02-17T22:23:07.969Z,101577.41
2023-02-17T22:33:11.565Z,101568.19
2023-02-17T22:43:16.108Z,101556.91
2023-02-17T22:53:19.746Z,101549.41
2023-02-17T23:03:24.752Z,101537.41
2023-02-17T23:13:27.848Z,101530.53
2023-02-17T23:23:32.318Z,101534.94
2023-02-17T23:33:35.448Z,101532.41
2023-02-17T23:43:39.965Z,101539.41
2023-02-17T23:53:42.940Z,101537.63
